Time;durP1;ratioP1;P1;durP2;ratioP2;P2;SDS_P1;SDS_P2;PMS_P1;PMS_P2;Temp;Humidity;BMP_temperature;BMP_pressure;BME280_temperature;BME280_humidity;BME280_pressure;Samples;Min_cycle;Max_cycle;Signal;HPM_P1;HPM_P2
2023/07/07 00:01:47;;;;;;;5.83;2.90;;;15.00;99.90;;;;;;5033087;28;20280;-69
2023/07/07 00:04:13;;;;;;;7.27;2.70;;;15.00;99.90;;;;;;5033207;28;20423;-69
2023/07/07 00:06:39;;;;;;;6.93;2.70;;;15.00;99.90;;;;;;5032859;28;20042;-69
2023/07/07 00:09:05;;;;;;;5.27;2.27;;;15.00;99.90;;;;;;5033325;28;20295;-68
2023/07/07 00:11:31;;;;;;;5.17;1.90;;;15.00;99.90;;;;;;5032819;28;20046;-69
2023/07/07 00:13:57;;;;;;;6.20;2.43;;;15.00;99.90;;;;;;5032165;28;20493;-68
2023/07/07 00:16:27;;;;;;;4.63;2.13;;;14.90;99.90;;;;;;5033093;28;20083;-68
2023/07/07 00:18:54;;;;;;;4.67;2.70;;;14.80;99.90;;;;;;5048405;28;20307;-68
2023/07/07 00:21:24;;;;;;;4.87;2.10;;;14.80;99.90;;;;;;5031803;28;20284;-68
2023/07/07 00:23:53;;;;;;;3.70;2.00;;;14.80;99.90;;;;;;5032634;28;20378;-68
2023/07/07 00:26:20;;;;;;;7.73;2.30;;;14.80;99.90;;;;;;5033010;28;20303;-69
2023/07/07 00:28:45;;;;;;;5.50;2.30;;;14.80;99.90;;;;;;5031969;28;20288;-68
2023/07/07 00:31:11;;;;;;;5.43;2.20;;;14.70;99.90;;;;;;5032939;28;20817;-68
2023/07/07 00:33:37;;;;;;;5.23;2.17;;;14.70;99.90;;;;;;5032563;28;20128;-69
2023/07/07 00:36:03;;;;;;;4.90;2.43;;;14.70;99.90;;;;;;5032935;28;20422;-68
2023/07/07 00:38:30;;;;;;;4.43;2.40;;;14.60;99.90;;;;;;5033083;28;20052;-68
2023/07/07 00:41:03;;;;;;;5.20;2.63;;;14.60;99.90;;;;;;5031338;28;20318;-68
2023/07/07 00:43:29;;;;;;;7.50;2.40;;;14.60;99.90;;;;;;5032767;28;20340;-68
2023/07/07 00:45:56;;;;;;;5.90;1.97;;;14.60;99.90;;;;;;5032453;28;20276;-68
2023/07/07 00:48:30;;;;;;;7.17;2.70;;;14.60;99.90;;;;;;5032439;28;20779;-68
2023/07/07 00:51:00;;;;;;;6.67;2.57;;;14.60;99.90;;;;;;5032474;28;20307;-68
2023/07/07 00:53:26;;;;;;;4.73;2.63;;;14.60;99.90;;;;;;5031408;28;20303;-68
2023/07/07 00:55:58;;;;;;;6.40;2.80;;;14.50;99.90;;;;;;5032339;28;20276;-68
2023/07/07 00:58:25;;;;;;;7.60;3.13;;;14.50;99.90;;;;;;5031496;28;20303;-68
2023/07/07 01:01:02;;;;;;;5.43;2.53;;;14.40;99.90;;;;;;5031351;28;20350;-68
2023/07/07 01:03:37;;;;;;;6.87;3.03;;;14.40;99.90;;;;;;5032661;28;20299;-68
2023/07/07 01:06:06;;;;;;;7.07;2.67;;;14.40;99.90;;;;;;5032616;28;20312;-68
2023/07/07 01:08:33;;;;;;;7.20;2.83;;;14.40;99.90;;;;;;5032629;28;20099;-68
2023/07/07 01:10:59;;;;;;;5.63;2.67;;;14.40;99.90;;;;;;5032200;28;20292;-68
2023/07/07 01:13:26;;;;;;;5.17;2.73;;;14.40;99.90;;;;;;5032620;28;20337;-68
2023/07/07 01:15:56;;;;;;;6.20;3.10;;;14.50;99.90;;;;;;5032267;28;20046;-68
2023/07/07 01:18:59;;;;;;;6.07;2.70;;;14.50;99.90;;;;;;5032429;28;20304;-68
2023/07/07 01:21:52;;;;;;;7.00;2.87;;;14.40;99.90;;;;;;5032609;28;20377;-68
2023/07/07 01:24:24;;;;;;;5.47;2.53;;;14.40;99.90;;;;;;5032164;28;20349;-68
2023/07/07 01:27:23;;;;;;;6.33;2.77;;;14.40;99.90;;;;;;5032125;28;20291;-68
2023/07/07 01:30:26;;;;;;;5.00;2.63;;;14.50;99.90;;;;;;5032084;28;20662;-69
2023/07/07 01:32:52;;;;;;;5.10;2.70;;;14.30;99.90;;;;;;5030880;28;20310;-69
2023/07/07 01:35:20;;;;;;;6.37;2.90;;;14.30;99.90;;;;;;5032249;28;20276;-68
2023/07/07 01:37:58;;;;;;;6.17;2.83;;;14.30;99.90;;;;;;5031975;28;20285;-69
2023/07/07 01:40:33;;;;;;;5.67;3.10;;;14.20;99.90;;;;;;5034798;28;20320;-68
2023/07/07 01:43:05;;;;;;;6.07;3.27;;;14.20;99.90;;;;;;5035632;28;20751;-68
2023/07/07 01:45:55;;;;;;;7.50;3.73;;;14.20;99.90;;;;;;5036042;28;20319;-68
2023/07/07 01:48:47;;;;;;;7.63;3.80;;;14.20;99.90;;;;;;5028695;28;20307;-68
2023/07/07 01:51:15;;;;;;;7.03;3.60;;;14.20;99.90;;;;;;5034566;28;20362;-68
2023/07/07 01:53:42;;;;;;;8.03;4.20;;;14.10;99.90;;;;;;5034723;28;20292;-68
2023/07/07 01:56:11;;;;;;;7.77;4.33;;;14.10;99.90;;;;;;5035581;28;20316;-68
2023/07/07 01:58:38;;;;;;;8.10;3.93;;;14.10;99.90;;;;;;5035576;28;20280;-68
2023/07/07 02:01:04;;;;;;;7.47;3.77;;;14.10;99.90;;;;;;5035276;28;20280;-68
2023/07/07 02:03:30;;;;;;;8.30;3.80;;;14.10;99.90;;;;;;5035485;28;20367;-68
2023/07/07 02:05:56;;;;;;;7.50;3.97;;;14.00;99.90;;;;;;5050505;28;20372;-68
2023/07/07 02:08:21;;;;;;;6.57;4.10;;;14.00;99.90;;;;;;5035384;28;20424;-68
2023/07/07 02:10:47;;;;;;;6.67;3.50;;;13.90;99.90;;;;;;5035018;28;20045;-69
2023/07/07 02:13:13;;;;;;;6.83;4.13;;;13.90;99.90;;;;;;5035666;28;20045;-68
2023/07/07 02:15:38;;;;;;;7.87;3.63;;;13.90;99.90;;;;;;5035227;28;20045;-69
2023/07/07 02:18:04;;;;;;;7.20;4.07;;;13.80;99.90;;;;;;5034839;28;20049;-68
2023/07/07 02:20:31;;;;;;;7.80;3.93;;;13.80;99.90;;;;;;5035098;28;20041;-68
2023/07/07 02:22:56;;;;;;;8.63;3.90;;;13.80;99.90;;;;;;5049940;28;20081;-68
2023/07/07 02:25:22;;;;;;;7.97;4.67;;;13.80;99.90;;;;;;5033942;28;20288;-68
2023/07/07 02:27:48;;;;;;;6.67;4.10;;;13.80;99.90;;;;;;5034661;28;20076;-68
2023/07/07 02:30:14;;;;;;;9.10;5.30;;;13.70;99.90;;;;;;5034574;28;20477;-68
2023/07/07 02:32:39;;;;;;;9.23;4.97;;;13.70;99.90;;;;;;5034726;28;20057;-68
2023/07/07 02:35:06;;;;;;;11.37;5.47;;;13.70;99.90;;;;;;5034484;28;20452;-68
2023/07/07 02:37:32;;;;;;;10.33;5.63;;;13.80;99.90;;;;;;5033549;28;20045;-68
2023/07/07 02:39:58;;;;;;;8.67;5.37;;;13.80;99.90;;;;;;5034505;28;20280;-68
2023/07/07 02:42:24;;;;;;;9.17;6.13;;;13.80;99.90;;;;;;5033612;28;20299;-68
2023/07/07 02:44:50;;;;;;;10.13;5.90;;;13.80;99.90;;;;;;5034399;28;20081;-69
2023/07/07 02:47:16;;;;;;;8.40;5.97;;;13.80;99.90;;;;;;5034661;28;20280;-68
2023/07/07 02:49:42;;;;;;;8.70;6.27;;;13.80;99.90;;;;;;5034626;28;20327;-68
2023/07/07 02:52:08;;;;;;;8.80;6.20;;;13.80;99.90;;;;;;5032320;28;20339;-68
2023/07/07 02:54:34;;;;;;;8.93;6.50;;;13.90;99.90;;;;;;5034543;28;20128;-68
2023/07/07 02:57:01;;;;;;;12.03;7.57;;;13.80;99.90;;;;;;5034156;28;20057;-68
2023/07/07 02:59:26;;;;;;;11.33;6.97;;;13.80;99.90;;;;;;5034461;28;20284;-68
2023/07/07 03:01:52;;;;;;;12.13;7.30;;;13.80;99.90;;;;;;5034197;28;20280;-68
2023/07/07 03:04:18;;;;;;;10.67;6.90;;;13.80;99.90;;;;;;5033354;28;20054;-68
2023/07/07 03:06:43;;;;;;;12.77;7.97;;;13.90;99.90;;;;;;5033390;28;20041;-68
2023/07/07 03:09:09;;;;;;;11.17;7.03;;;13.80;99.90;;;;;;5034028;28;20053;-68
2023/07/07 03:11:35;;;;;;;13.00;7.07;;;13.80;99.90;;;;;;5033178;28;20085;-68
2023/07/07 03:14:01;;;;;;;10.83;7.57;;;13.80;99.90;;;;;;5034104;28;20366;-68
2023/07/07 03:16:32;;;;;;;14.07;8.30;;;13.80;99.90;;;;;;5034205;28;20041;-68
2023/07/07 03:19:08;;;;;;;10.73;7.90;;;13.80;99.90;;;;;;5034105;28;20350;-68
2023/07/07 03:21:33;;;;;;;11.17;7.43;;;13.80;99.90;;;;;;5033111;28;20835;-68
2023/07/07 03:23:59;;;;;;;11.93;7.90;;;13.80;99.90;;;;;;5033850;28;20359;-68
2023/07/07 03:26:27;;;;;;;13.53;8.27;;;13.90;99.90;;;;;;5034000;28;20045;-68
2023/07/07 03:28:53;;;;;;;11.67;8.23;;;13.90;99.90;;;;;;5032686;28;20049;-75
2023/07/07 03:31:31;;;;;;;11.43;9.27;;;13.80;99.90;;;;;;5033992;28;20302;-68
2023/07/07 03:33:59;;;;;;;14.80;8.13;;;13.80;99.90;;;;;;5033785;28;20279;-68
2023/07/07 03:36:28;;;;;;;11.57;8.20;;;13.90;99.90;;;;;;5034280;28;20291;-68
2023/07/07 03:38:55;;;;;;;11.87;8.83;;;13.80;99.90;;;;;;5033807;28;20771;-75
2023/07/07 03:41:23;;;;;;;14.57;8.80;;;13.80;99.90;;;;;;5033823;28;20342;-68
2023/07/07 03:43:50;;;;;;;13.13;8.37;;;13.80;99.90;;;;;;5033355;28;20760;-68
2023/07/07 03:46:19;;;;;;;11.70;7.87;;;13.80;99.90;;;;;;5033376;28;20708;-68
2023/07/07 03:48:46;;;;;;;13.40;8.97;;;13.80;99.90;;;;;;5033619;28;20295;-68
2023/07/07 03:51:13;;;;;;;11.13;8.60;;;13.80;99.90;;;;;;5033379;28;20304;-68
2023/07/07 03:53:39;;;;;;;16.03;8.77;;;13.80;99.90;;;;;;5033902;28;20295;-68
2023/07/07 03:56:05;;;;;;;12.70;8.50;;;13.80;99.90;;;;;;5033102;28;20280;-68
2023/07/07 03:58:32;;;;;;;10.47;8.70;;;13.90;99.90;;;;;;5033381;28;20345;-68
2023/07/07 04:01:02;;;;;;;12.90;8.80;;;13.90;99.90;;;;;;5033113;28;20037;-69
2023/07/07 04:03:28;;;;;;;13.70;8.23;;;13.90;99.90;;;;;;5033234;28;20287;-68
2023/07/07 04:05:55;;;;;;;12.43;8.87;;;14.00;99.90;;;;;;5048895;28;20354;-68
2023/07/07 04:08:25;;;;;;;14.63;8.30;;;14.00;99.90;;;;;;5032938;28;20687;-67
2023/07/07 04:11:03;;;;;;;15.27;9.47;;;14.00;99.90;;;;;;5033279;28;20278;-68
2023/07/07 04:13:31;;;;;;;12.07;9.17;;;14.00;99.90;;;;;;5032887;28;20280;-68
2023/07/07 04:16:06;;;;;;;14.00;9.17;;;14.10;99.90;;;;;;5033196;28;20286;-68
2023/07/07 04:18:33;;;;;;;15.00;8.83;;;14.10;99.90;;;;;;5033350;28;20280;-68
2023/07/07 04:21:01;;;;;;;12.37;8.93;;;14.10;99.90;;;;;;5032802;28;20286;-71
2023/07/07 04:23:27;;;;;;;11.03;8.20;;;14.10;99.90;;;;;;5032603;28;20671;-68
2023/07/07 04:25:54;;;;;;;15.30;10.30;;;14.10;99.90;;;;;;5031990;28;20327;-68
2023/07/07 04:28:19;;;;;;;15.90;9.97;;;14.20;99.90;;;;;;5032762;28;20295;-68
2023/07/07 04:30:51;;;;;;;13.23;9.13;;;14.20;99.90;;;;;;5048347;28;20280;-69
2023/07/07 04:33:17;;;;;;;12.70;9.47;;;14.20;99.90;;;;;;5032868;28;20481;-68
2023/07/07 04:35:42;;;;;;;12.97;9.33;;;14.30;99.90;;;;;;5048567;28;20292;-68
2023/07/07 04:38:08;;;;;;;14.30;9.73;;;14.30;99.90;;;;;;5032574;28;20077;-68
2023/07/07 04:40:34;;;;;;;14.90;10.70;;;14.40;99.90;;;;;;5033087;28;20049;-68
2023/07/07 04:42:59;;;;;;;14.77;10.40;;;14.40;99.90;;;;;;5032765;28;20132;-68
2023/07/07 04:45:25;;;;;;;14.37;10.53;;;14.50;99.90;;;;;;5032476;28;20095;-68
2023/07/07 04:47:51;;;;;;;12.67;9.80;;;14.60;99.90;;;;;;5032789;28;20049;-68
2023/07/07 04:50:16;;;;;;;13.90;10.30;;;14.60;99.90;;;;;;5031578;28;20475;-68
2023/07/07 04:52:42;;;;;;;12.83;10.20;;;14.70;99.90;;;;;;5047928;28;20150;-68
2023/07/07 04:55:08;;;;;;;17.77;10.87;;;14.80;99.90;;;;;;5032434;28;20080;-68
2023/07/07 04:57:34;;;;;;;13.53;9.57;;;14.90;99.90;;;;;;5032661;28;20452;-68
2023/07/07 05:00:05;;;;;;;15.10;10.03;;;15.10;99.90;;;;;;5032668;28;20276;-68
2023/07/07 05:02:33;;;;;;;12.90;10.23;;;15.20;99.90;;;;;;5031858;28;20092;-69
2023/07/07 05:04:59;;;;;;;14.87;10.27;;;15.30;99.90;;;;;;5047642;28;20834;-68
2023/07/07 05:07:28;;;;;;;14.37;9.60;;;15.50;99.90;;;;;;5032324;28;20371;-68
2023/07/07 05:09:54;;;;;;;15.00;10.43;;;15.60;99.90;;;;;;5032534;28;20049;-68
2023/07/07 05:12:20;;;;;;;13.20;10.40;;;15.70;99.90;;;;;;5032071;28;20292;-68
2023/07/07 05:14:46;;;;;;;15.03;11.17;;;15.90;99.90;;;;;;5034410;28;20288;-68
2023/07/07 05:17:11;;;;;;;13.77;10.20;;;16.00;99.90;;;;;;5036207;28;20056;-69
2023/07/07 05:19:37;;;;;;;15.37;10.17;;;16.10;99.90;;;;;;5035399;28;20493;-68
2023/07/07 05:22:03;;;;;;;13.73;10.10;;;16.20;99.90;;;;;;5035970;28;20057;-68
2023/07/07 05:24:29;;;;;;;12.93;9.57;;;16.30;99.90;;;;;;5036013;28;20042;-68
2023/07/07 05:26:55;;;;;;;11.77;9.67;;;16.40;99.90;;;;;;5035384;28;20033;-69
2023/07/07 05:29:22;;;;;;;14.67;10.77;;;16.50;99.90;;;;;;5035516;28;20043;-68
2023/07/07 05:31:48;;;;;;;14.20;9.60;;;16.60;99.90;;;;;;5034482;28;20080;-69
2023/07/07 05:34:14;;;;;;;14.13;10.13;;;16.70;99.90;;;;;;5035719;28;20628;-69
2023/07/07 05:36:40;;;;;;;13.83;9.67;;;16.90;99.90;;;;;;5035970;28;20102;-68
2023/07/07 05:39:06;;;;;;;14.03;9.53;;;16.90;99.90;;;;;;5035017;28;20057;-68
2023/07/07 05:41:32;;;;;;;15.23;9.07;;;17.10;99.90;;;;;;5035691;28;20046;-68
2023/07/07 05:43:58;;;;;;;15.43;9.97;;;17.20;99.90;;;;;;5036022;28;20276;-68
2023/07/07 05:46:24;;;;;;;13.97;8.90;;;17.40;99.90;;;;;;5035349;28;20118;-69
2023/07/07 05:48:50;;;;;;;15.13;8.00;;;17.50;99.90;;;;;;5034552;28;20053;-69
2023/07/07 05:51:18;;;;;;;11.40;8.83;;;17.60;99.90;;;;;;5035044;28;20051;-67
2023/07/07 05:53:44;;;;;;;12.83;8.93;;;18.00;99.90;;;;;;5035153;28;20045;-69
2023/07/07 05:56:23;;;;;;;10.73;8.10;;;18.80;99.90;;;;;;5042616;28;20042;-70
2023/07/07 05:58:54;;;;;;;9.27;7.70;;;20.30;99.90;;;;;;5033289;28;20120;-71
2023/07/07 06:01:19;;;;;;;12.17;7.87;;;21.70;99.90;;;;;;5035286;28;20052;-72
2023/07/07 06:03:45;;;;;;;10.13;7.33;;;22.90;99.90;;;;;;5035563;28;20049;-71
2023/07/07 06:06:12;;;;;;;10.43;7.83;;;23.90;99.90;;;;;;5035422;28;20050;-77
2023/07/07 06:08:39;;;;;;;9.70;7.57;;;24.80;99.90;;;;;;5034441;28;20061;-70
2023/07/07 06:11:06;;;;;;;12.13;6.87;;;25.40;99.90;;;;;;5035049;28;20564;-68
2023/07/07 06:13:32;;;;;;;11.57;6.67;;;26.20;99.90;;;;;;5035083;28;20053;-69
2023/07/07 06:15:59;;;;;;;12.63;6.23;;;26.70;99.90;;;;;;5034792;28;20386;-71
2023/07/07 06:18:24;;;;;;;10.20;6.37;;;27.20;99.90;;;;;;5034590;28;20140;-70
2023/07/07 06:21:00;;;;;;;10.50;6.67;;;27.50;96.30;;;;;;5034175;28;20116;-70
2023/07/07 06:23:27;;;;;;;8.40;6.40;;;27.90;77.30;;;;;;5032252;28;20061;-71
2023/07/07 06:26:12;;;;;;;8.67;5.80;;;28.50;81.80;;;;;;5032012;28;20055;-70
2023/07/07 06:28:38;;;;;;;8.90;5.57;;;29.00;65.20;;;;;;5035387;28;20052;-71
2023/07/07 06:31:03;;;;;;;8.97;5.50;;;29.20;69.60;;;;;;5050544;28;20049;-70
2023/07/07 06:33:29;;;;;;;7.60;5.80;;;29.50;65.40;;;;;;5034600;28;20139;-70
2023/07/07 06:35:55;;;;;;;8.43;5.50;;;29.90;61.20;;;;;;5050773;28;20125;-70
2023/07/07 06:38:20;;;;;;;9.15;5.05;;;30.20;58.20;;;;;;5034882;28;20045;-71
2023/07/07 06:40:47;;;;;;;6.72;5.22;;;30.40;56.60;;;;;;5035065;28;20119;-70
2023/07/07 06:43:17;;;;;;;8.07;5.10;;;31.00;56.20;;;;;;5035179;28;20042;-70
2023/07/07 06:45:44;;;;;;;7.82;4.47;;;31.20;53.60;;;;;;5033799;28;20049;-70
2023/07/07 06:48:10;;;;;;;9.50;5.47;;;31.70;52.20;;;;;;5034950;28;20049;-70
2023/07/07 06:50:40;;;;;;;10.73;5.43;;;31.70;51.10;;;;;;5050271;28;20454;-70
2023/07/07 06:53:05;;;;;;;9.52;6.05;;;31.90;49.80;;;;;;5034554;28;20570;-70
2023/07/07 06:55:31;;;;;;;7.75;4.82;;;32.30;49.50;;;;;;5050199;28;20046;-70
2023/07/07 06:57:57;;;;;;;7.35;4.60;;;32.40;48.50;;;;;;5050126;28;20050;-70
2023/07/07 07:00:23;;;;;;;8.23;5.10;;;32.80;47.70;;;;;;5034835;28;20402;-71
2023/07/07 07:02:48;;;;;;;7.32;5.10;;;32.90;47.00;;;;;;5034598;28;20041;-70
2023/07/07 07:05:14;;;;;;;9.13;5.53;;;33.40;46.50;;;;;;5034689;28;20053;-70
2023/07/07 07:07:40;;;;;;;8.18;5.28;;;33.50;44.90;;;;;;5034368;28;20053;-71
2023/07/07 07:10:06;;;;;;;9.43;4.88;;;33.50;44.80;;;;;;5034078;28;20045;-70
2023/07/07 07:12:32;;;;;;;6.82;4.60;;;33.60;44.80;;;;;;5034190;28;20045;-71
2023/07/07 07:14:58;;;;;;;8.18;4.57;;;34.00;43.90;;;;;;5033684;28;20378;-68
2023/07/07 07:17:25;;;;;;;9.48;4.78;;;34.00;43.60;;;;;;5049589;28;20132;-68
2023/07/07 07:19:51;;;;;;;8.02;4.43;;;33.90;43.60;;;;;;5034830;28;20049;-70
2023/07/07 07:22:18;;;;;;;8.57;4.55;;;34.20;43.20;;;;;;5034093;28;20066;-70
2023/07/07 07:24:44;;;;;;;6.53;3.95;;;34.20;43.00;;;;;;5033941;28;20045;-70
2023/07/07 07:27:09;;;;;;;7.07;4.40;;;34.50;42.80;;;;;;5034127;28;20045;-68
2023/07/07 07:29:35;;;;;;;8.05;3.92;;;34.50;42.70;;;;;;5033869;28;20051;-68
2023/07/07 07:32:01;;;;;;;6.28;3.67;;;34.40;43.00;;;;;;5049568;28;20068;-68
2023/07/07 07:34:30;;;;;;;7.32;4.25;;;34.60;42.00;;;;;;5033830;28;20045;-68
2023/07/07 07:36:58;;;;;;;6.95;3.90;;;34.60;42.20;;;;;;5033932;28;20045;-71
2023/07/07 07:39:23;;;;;;;6.35;3.72;;;34.50;41.20;;;;;;5032786;28;20060;-71
2023/07/07 07:41:51;;;;;;;6.60;3.63;;;35.10;41.60;;;;;;5033201;28;20465;-68
2023/07/07 07:44:19;;;;;;;6.80;4.03;;;35.30;41.30;;;;;;5033784;28;20057;-69
2023/07/07 07:46:46;;;;;;;6.57;3.80;;;35.40;41.10;;;;;;5033621;28;20075;-71
2023/07/07 07:49:12;;;;;;;5.13;3.40;;;35.50;40.70;;;;;;5032712;28;20488;-70
2023/07/07 07:51:39;;;;;;;5.57;2.97;;;35.90;40.20;;;;;;5033410;28;20046;-68
2023/07/07 07:54:10;;;;;;;6.68;3.47;;;35.90;39.90;;;;;;5033578;28;20045;-69
2023/07/07 07:56:37;;;;;;;6.88;3.70;;;36.20;39.70;;;;;;5033331;28;20049;-68
2023/07/07 07:59:04;;;;;;;5.30;3.00;;;36.20;38.60;;;;;;5033428;28;20049;-68
2023/07/07 08:01:29;;;;;;;7.43;3.42;;;36.00;38.70;;;;;;5032453;28;20049;-68
2023/07/07 08:03:56;;;;;;;5.07;3.00;;;36.10;39.20;;;;;;5032891;28;20426;-68
2023/07/07 08:06:22;;;;;;;8.10;2.95;;;36.20;38.80;;;;;;5033661;28;20095;-67
2023/07/07 08:08:47;;;;;;;5.82;3.15;;;36.20;38.80;;;;;;5032240;28;20500;-67
2023/07/07 08:11:17;;;;;;;5.32;2.97;;;36.30;38.70;;;;;;5033445;28;20132;-67
2023/07/07 08:13:43;;;;;;;5.53;3.03;;;36.50;37.90;;;;;;5033338;28;20052;-68
2023/07/07 08:16:11;;;;;;;6.63;2.78;;;36.60;37.70;;;;;;5033230;28;20132;-67
2023/07/07 08:18:40;;;;;;;6.63;3.00;;;36.70;36.90;;;;;;5048581;28;20057;-67
2023/07/07 08:21:06;;;;;;;5.00;3.05;;;36.50;37.00;;;;;;5032156;28;20068;-67
2023/07/07 08:23:32;;;;;;;5.13;3.00;;;36.50;37.20;;;;;;5032513;28;20053;-68
2023/07/07 08:25:59;;;;;;;5.00;2.80;;;36.60;37.70;;;;;;5033060;28;20045;-67
2023/07/07 08:28:26;;;;;;;4.43;2.70;;;36.80;37.60;;;;;;5048548;28;20512;-67
2023/07/07 08:30:52;;;;;;;5.43;3.33;;;37.00;37.10;;;;;;5048584;28;20045;-67
2023/07/07 08:33:19;;;;;;;5.20;2.78;;;36.90;36.60;;;;;;5033032;28;20046;-67
2023/07/07 08:35:44;;;;;;;4.70;2.83;;;36.70;36.10;;;;;;5048422;28;20091;-70
2023/07/07 08:38:10;;;;;;;5.32;3.20;;;36.70;37.20;;;;;;5033023;28;20088;-68
2023/07/07 08:40:45;;;;;;;5.88;3.17;;;36.60;37.40;;;;;;5048369;28;20054;-68
2023/07/07 08:43:12;;;;;;;5.32;3.00;;;36.60;37.40;;;;;;5033215;28;20129;-68
2023/07/07 08:45:43;;;;;;;4.43;2.40;;;36.10;37.90;;;;;;5048112;28;20045;-68
2023/07/07 08:48:44;;;;;;;5.63;2.70;;;35.80;38.70;;;;;;5048386;28;20063;-68
2023/07/07 08:51:18;;;;;;;4.95;2.90;;;35.60;37.50;;;;;;5018774;28;20064;-69
2023/07/07 08:54:08;;;;;;;6.82;3.28;;;35.40;37.50;;;;;;5032927;28;20064;-69
2023/07/07 08:57:06;;;;;;;7.55;3.00;;;34.80;38.10;;;;;;5032889;28;20041;-69
2023/07/07 08:59:58;;;;;;;4.97;3.00;;;33.90;38.90;;;;;;5032595;28;20050;-73
2023/07/07 09:02:32;;;;;;;6.43;3.38;;;32.80;39.50;;;;;;5031983;28;20093;-68
2023/07/07 09:05:13;;;;;;;5.32;2.63;;;32.20;39.90;;;;;;5048732;28;20049;-68
2023/07/07 09:07:46;;;;;;;4.75;2.90;;;31.50;40.70;;;;;;5031597;28;20060;-69
2023/07/07 09:10:40;;;;;;;6.85;3.00;;;30.90;41.70;;;;;;5032763;28;20492;-69
2023/07/07 09:13:27;;;;;;;6.28;2.92;;;30.50;42.30;;;;;;5048045;28;20083;-69
2023/07/07 09:16:11;;;;;;;5.32;3.50;;;30.20;42.90;;;;;;5032528;28;20563;-69
2023/07/07 09:19:00;;;;;;;4.85;2.60;;;30.10;42.50;;;;;;5032347;28;20053;-69
2023/07/07 09:21:29;;;;;;;5.57;3.15;;;29.90;41.30;;;;;;5031054;28;20057;-69
2023/07/07 09:24:02;;;;;;;5.13;2.70;;;29.70;41.60;;;;;;5048059;28;20111;-69
2023/07/07 09:26:31;;;;;;;4.80;2.78;;;29.60;41.90;;;;;;5015126;28;20045;-69
2023/07/07 09:28:59;;;;;;;5.55;2.80;;;29.50;42.20;;;;;;5032261;28;20519;-69
2023/07/07 09:31:41;;;;;;;5.03;2.58;;;29.40;42.20;;;;;;5031515;28;20052;-69
2023/07/07 09:34:09;;;;;;;6.60;3.22;;;29.20;42.40;;;;;;5031901;28;20132;-69
2023/07/07 09:36:47;;;;;;;7.95;3.10;;;28.90;42.50;;;;;;5032530;28;20046;-69
2023/07/07 09:39:12;;;;;;;5.47;2.78;;;28.60;42.70;;;;;;5032441;28;20049;-69
2023/07/07 09:42:00;;;;;;;6.57;3.03;;;28.40;43.60;;;;;;5032290;28;20053;-69
2023/07/07 09:45:06;;;;;;;8.15;2.60;;;28.40;44.20;;;;;;5031482;28;20463;-69
2023/07/07 09:47:58;;;;;;;6.72;3.10;;;28.30;43.90;;;;;;5032415;28;20048;-69
2023/07/07 09:50:37;;;;;;;7.03;3.13;;;28.20;44.20;;;;;;5032666;28;20498;-69
2023/07/07 09:53:19;;;;;;;5.93;2.90;;;28.20;43.50;;;;;;5032326;28;20512;-69
2023/07/07 09:55:45;;;;;;;4.50;2.50;;;28.10;43.60;;;;;;5032163;28;20049;-69
2023/07/07 09:58:14;;;;;;;5.30;2.50;;;28.00;43.90;;;;;;5047553;28;20397;-69
2023/07/07 10:00:42;;;;;;;7.47;3.33;;;27.90;44.00;;;;;;5033631;28;20041;-69
2023/07/07 10:03:26;;;;;;;4.75;2.33;;;27.90;44.00;;;;;;5035146;28;20068;-69
2023/07/07 10:05:54;;;;;;;5.10;2.75;;;27.90;44.50;;;;;;5035641;28;20088;-69
2023/07/07 10:08:20;;;;;;;5.20;2.65;;;27.80;44.80;;;;;;5035500;28;20505;-69
2023/07/07 10:11:08;;;;;;;5.10;2.40;;;27.70;44.50;;;;;;5035128;28;20084;-69
2023/07/07 10:13:33;;;;;;;5.68;2.92;;;27.70;45.00;;;;;;5051134;28;20058;-69
2023/07/07 10:16:13;;;;;;;4.10;2.30;;;27.60;44.80;;;;;;5050680;28;20045;-69
2023/07/07 10:18:40;;;;;;;4.68;2.50;;;27.60;44.40;;;;;;5035535;28;20056;-69
2023/07/07 10:21:08;;;;;;;6.07;2.63;;;27.40;44.90;;;;;;5035128;28;20436;-69
2023/07/07 10:23:38;;;;;;;4.50;2.42;;;27.40;45.60;;;;;;5035593;28;20061;-69
2023/07/07 10:26:04;;;;;;;5.85;2.50;;;27.20;45.20;;;;;;5035147;28;20122;-69
2023/07/07 10:28:30;;;;;;;6.35;2.55;;;27.20;45.70;;;;;;5035165;28;20548;-68
2023/07/07 10:30:56;;;;;;;5.13;2.70;;;27.10;45.50;;;;;;5034764;28;20068;-69
2023/07/07 10:33:21;;;;;;;6.40;2.38;;;27.00;45.30;;;;;;5035337;28;20104;-68
2023/07/07 10:35:48;;;;;;;5.90;2.58;;;26.90;45.70;;;;;;5034988;28;20457;-69
2023/07/07 10:38:14;;;;;;;4.68;2.42;;;27.00;45.80;;;;;;5035004;28;20045;-68
2023/07/07 10:40:42;;;;;;;4.57;2.35;;;27.00;45.90;;;;;;5035110;28;20129;-69
2023/07/07 10:43:15;;;;;;;5.43;2.67;;;26.90;46.10;;;;;;5034843;28;20041;-69
2023/07/07 10:45:45;;;;;;;4.55;2.60;;;26.90;46.70;;;;;;5034972;28;20404;-69
2023/07/07 10:48:12;;;;;;;5.70;2.88;;;26.70;45.80;;;;;;5035177;28;20119;-69
2023/07/07 10:50:59;;;;;;;6.40;2.23;;;26.70;46.40;;;;;;5034867;28;20045;-68
2023/07/07 10:53:27;;;;;;;4.73;2.33;;;26.60;45.00;;;;;;5034765;28;20048;-68
2023/07/07 10:56:18;;;;;;;5.87;2.43;;;26.50;46.80;;;;;;5034515;28;20046;-69
2023/07/07 10:59:33;;;;;;;6.77;2.70;;;26.50;45.50;;;;;;5034674;28;20049;-68
2023/07/07 11:02:17;;;;;;;7.38;3.05;;;26.40;48.00;;;;;;5034415;28;20103;-69
2023/07/07 11:04:49;;;;;;;5.18;2.47;;;26.50;48.10;;;;;;5034481;28;20037;-69
2023/07/07 11:07:44;;;;;;;8.70;2.60;;;26.60;48.20;;;;;;5034856;28;20045;-69
2023/07/07 11:10:48;;;;;;;5.97;2.75;;;26.60;48.30;;;;;;5028938;28;20200;-69
2023/07/07 11:13:22;;;;;;;5.97;2.50;;;26.60;47.30;;;;;;5021241;28;20178;-69
2023/07/07 11:15:56;;;;;;;;;;;26.50;47.20;;;;;;5034829;28;20382;-70
2023/07/07 11:18:24;;;;;;;5.47;2.50;;;26.50;46.90;;;;;;5034572;28;19967;-69
2023/07/07 11:21:12;;;;;;;5.07;2.70;;;26.40;46.80;;;;;;5034004;28;20057;-69
2023/07/07 11:23:54;;;;;;;6.47;2.47;;;26.30;45.90;;;;;;5034263;28;20057;-69
2023/07/07 11:26:47;;;;;;;5.20;2.30;;;26.40;47.60;;;;;;5049796;28;20051;-69
2023/07/07 11:29:51;;;;;;;5.07;2.37;;;26.40;47.90;;;;;;5034089;28;20454;-69
2023/07/07 11:32:21;;;;;;;5.33;2.37;;;26.30;46.80;;;;;;5022466;28;20049;-69
2023/07/07 11:35:16;;;;;;;5.47;2.90;;;26.30;46.80;;;;;;5049677;28;20049;-68
2023/07/07 11:38:17;;;;;;;5.17;3.00;;;26.20;46.90;;;;;;5031445;28;20580;-68
2023/07/07 11:40:58;;;;;;;6.13;2.90;;;26.10;46.60;;;;;;5025030;28;20061;-68
2023/07/07 11:43:30;;;;;;;5.40;2.60;;;26.10;46.60;;;;;;5033193;28;20053;-68
2023/07/07 11:46:19;;;;;;;5.27;2.50;;;26.10;46.80;;;;;;5033614;28;20199;-69
2023/07/07 11:49:11;;;;;;;6.07;3.07;;;26.00;46.80;;;;;;5033870;28;20085;-68
2023/07/07 11:52:02;;;;;;;5.10;2.77;;;26.00;46.40;;;;;;5033737;28;20041;-68
2023/07/07 11:54:57;;;;;;;5.83;3.03;;;25.90;46.70;;;;;;5033586;28;20072;-68
2023/07/07 11:57:35;;;;;;;5.88;2.78;;;25.90;47.70;;;;;;5033594;28;20095;-68
2023/07/07 12:00:25;;;;;;;4.73;2.47;;;25.90;47.70;;;;;;5033754;28;20144;-69
2023/07/07 12:03:02;;;;;;;4.87;2.80;;;25.90;47.20;;;;;;5033599;28;20458;-68
2023/07/07 12:05:32;;;;;;;6.57;2.83;;;25.90;46.60;;;;;;5033790;28;20416;-68
2023/07/07 12:08:12;;;;;;;7.13;2.53;;;25.90;47.90;;;;;;5033193;28;20537;-69
2023/07/07 12:10:53;;;;;;;4.80;2.80;;;26.00;48.40;;;;;;5033459;28;20046;-68
2023/07/07 12:13:19;;;;;;;5.83;3.50;;;26.10;48.90;;;;;;5049305;28;20063;-68
2023/07/07 12:15:49;;;;;;;5.00;2.87;;;26.10;47.70;;;;;;5033275;28;20049;-68
2023/07/07 12:18:35;;;;;;;7.37;3.00;;;26.10;47.20;;;;;;5033195;28;20449;-68
2023/07/07 12:21:07;;;;;;;5.30;2.77;;;25.90;47.40;;;;;;5033055;28;20120;-69
2023/07/07 12:23:37;;;;;;;6.67;2.87;;;25.80;47.90;;;;;;5047506;28;20470;-68
2023/07/07 12:26:25;;;;;;;6.03;2.90;;;25.80;48.20;;;;;;5031984;28;20076;-69
2023/07/07 12:28:56;;;;;;;5.33;3.03;;;25.80;47.40;;;;;;5029269;28;20057;-68
2023/07/07 12:31:25;;;;;;;5.07;2.80;;;25.80;47.90;;;;;;5033094;28;20499;-68
2023/07/07 12:33:51;;;;;;;4.13;2.43;;;25.90;48.30;;;;;;5033038;28;20041;-68
2023/07/07 12:36:20;;;;;;;5.13;2.70;;;25.90;48.10;;;;;;5032813;28;20061;-68
2023/07/07 12:38:51;;;;;;;6.07;3.43;;;25.90;48.50;;;;;;5032628;28;20051;-68
2023/07/07 12:41:24;;;;;;;8.33;2.80;;;25.90;47.90;;;;;;5032817;28;20099;-69
2023/07/07 12:44:01;;;;;;;6.37;3.13;;;25.90;47.90;;;;;;5033084;28;20056;-69
2023/07/07 12:46:33;;;;;;;5.07;2.77;;;25.90;47.70;;;;;;5032957;28;20079;-69
2023/07/07 12:49:04;;;;;;;4.67;2.57;;;25.90;48.20;;;;;;5032967;28;20052;-69
2023/07/07 12:51:35;;;;;;;5.83;2.80;;;25.90;47.80;;;;;;5033076;28;20041;-69
2023/07/07 12:54:01;;;;;;;6.47;3.00;;;25.80;47.80;;;;;;5032614;28;20085;-69
2023/07/07 12:56:29;;;;;;;7.33;3.10;;;25.90;48.90;;;;;;5032578;28;20524;-68
2023/07/07 12:58:59;;;;;;;6.93;2.63;;;25.90;47.80;;;;;;5032883;28;20203;-69
2023/07/07 13:01:41;;;;;;;5.03;2.67;;;25.90;47.20;;;;;;5032869;28;20046;-69
2023/07/07 13:04:16;;;;;;;5.33;2.70;;;26.00;46.10;;;;;;5047212;28;20061;-69